»·PEaware :: N92RT KRIF-KTEX

N92RT :: KRIF-KTEX

FLIGHT INFORMATION

Flight Status: Arrived
Operator: Privately registered:
United States
More flights under this callsign
Pilot: Drew L. (13237)
Aircraft: SOCATA TBM-900
(TBM9)
More flights by this aircraft type
Origin: KRIF Richfield Mun
United States
Destination: KTEX Telluride Regl
United States
More flights between these airports :: More routes between these airports
Route: HAMET3 HVE DVC
File this flight plan on PilotEdge
Remarks:
Altitude:
(Current/Filed)
31,000ft
Speed:
(Current/Filed)
250kts
Departed: 15-Sep-19 08:10 AM
Arrived: 15-Sep-19 09:02 AM
Distance/Time
Traveled:
203nm/0:52
Distance/Time
To Go:
Arrived

Flight Plot

Page will automatically refresh every two minutes.

Flight plan parsing failed; only flown route is shown


Map Options




Map Legend


Flown Route
Filed Route
Departure Airport
Arrival Airport
Navaid (VOR, NDB)
Fix

Horizontal Profiles

Position Reports

Time Latitude Longitude Heading Altitude Ground
Speed
15-Sep-19 08:01 38.743835 -112.097168 285 5285ft 0kts
15-Sep-19 08:02 38.743835 -112.097168 285 5285ft 0kts
15-Sep-19 08:03 38.743835 -112.097168 285 5285ft 0kts
15-Sep-19 08:04 38.743835 -112.097168 285 5285ft 0kts
15-Sep-19 08:05 38.743836 -112.097169 285 5285ft 0kts
15-Sep-19 08:06 38.743836 -112.097169 285 5285ft 0kts
15-Sep-19 08:07 38.743836 -112.097169 285 5285ft 0kts
15-Sep-19 08:08 38.743080 -112.096776 112 5284ft 2kts
15-Sep-19 08:09 38.727401 -112.105749 205 5391ft 146kts
15-Sep-19 08:10 38.689784 -112.129631 204 7555ft 154kts
15-Sep-19 08:11 38.649876 -112.152663 203 9560ft 160kts
15-Sep-19 08:12 38.608056 -112.176621 203 11386ft 168kts
15-Sep-19 08:13 38.561048 -112.203313 196 12969ft 190kts
15-Sep-19 08:14 38.508416 -112.206317 159 14730ft 192kts
15-Sep-19 08:15 38.503181 -112.142265 89 16253ft 201kts
15-Sep-19 08:16 38.501623 -112.069876 96 17698ft 206kts
15-Sep-19 08:17 38.497656 -111.995921 97 19319ft 210kts
15-Sep-19 08:18 38.493357 -111.920300 97 20751ft 215kts
15-Sep-19 08:19 38.488873 -111.842644 98 22340ft 222kts
15-Sep-19 08:20 38.484217 -111.763209 98 23955ft 227kts
15-Sep-19 08:21 38.479382 -111.681513 98 25377ft 233kts
15-Sep-19 08:22 38.474343 -111.597345 98 26946ft 240kts
15-Sep-19 08:23 38.468689 -111.511601 107 28414ft 243kts
15-Sep-19 08:24 38.449229 -111.428362 112 29717ft 247kts
15-Sep-19 08:25 38.428612 -111.343810 113 30889ft 252kts
15-Sep-19 08:26 38.406702 -111.254545 112 31249ft 281kts
15-Sep-19 08:27 38.382276 -111.155177 112 31236ft 302kts
15-Sep-19 08:28 38.356470 -111.050569 112 31231ft 312kts
15-Sep-19 08:29 38.330071 -110.944142 113 31227ft 315kts
15-Sep-19 08:30 38.303409 -110.837179 114 31226ft 317kts
15-Sep-19 08:31 38.276695 -110.730479 114 31228ft 317kts
15-Sep-19 08:32 38.249742 -110.623288 114 31228ft 317kts
15-Sep-19 08:33 38.222800 -110.516566 114 31229ft 317kts
15-Sep-19 08:34 38.195656 -110.409511 114 31225ft 317kts
15-Sep-19 08:35 38.168479 -110.302820 114 31224ft 317kts
15-Sep-19 08:36 38.141094 -110.195751 114 31227ft 317kts
15-Sep-19 08:37 38.113744 -110.089258 114 31253ft 316kts
15-Sep-19 08:38 38.086335 -109.982999 115 31328ft 315kts
15-Sep-19 08:39 38.058974 -109.877355 115 31387ft 315kts
15-Sep-19 08:40 38.031510 -109.771796 115 31390ft 316kts
15-Sep-19 08:41 38.003770 -109.665614 115 31390ft 316kts
15-Sep-19 08:42 37.975932 -109.559514 114 31387ft 316kts
15-Sep-19 08:43 37.947865 -109.453048 114 31077ft 325kts
15-Sep-19 08:44 37.918804 -109.343156 114 30078ft 335kts
15-Sep-19 08:45 37.889531 -109.232950 114 29090ft 338kts
15-Sep-19 08:46 37.859133 -109.118997 114 28106ft 340kts
15-Sep-19 08:47 37.828397 -109.004384 113 26769ft 346kts
15-Sep-19 08:48 37.812255 -108.884004 82 25193ft 358kts
15-Sep-19 08:49 37.833443 -108.761415 82 23606ft 352kts
15-Sep-19 08:50 37.850967 -108.640363 82 22183ft 345kts
15-Sep-19 08:51 37.867903 -108.522194 82 20958ft 337kts
15-Sep-19 08:52 37.884426 -108.406054 82 19770ft 333kts
15-Sep-19 08:53 37.900407 -108.292908 82 18599ft 330kts
15-Sep-19 08:54 37.916218 -108.180198 82 17503ft 304kts
15-Sep-19 08:55 37.930094 -108.080515 82 16271ft 271kts
15-Sep-19 08:56 37.942211 -107.992974 81 14497ft 234kts
15-Sep-19 08:57 37.935316 -107.917165 105 12653ft 211kts
15-Sep-19 08:58 37.923714 -107.848876 77 11385ft 179kts
15-Sep-19 08:59 37.948801 -107.847544 258 10711ft 117kts
15-Sep-19 09:00 37.948793 -107.885176 286 9347ft 103kts
15-Sep-19 09:01 37.953564 -107.907676 214 9078ft 2kts
15-Sep-19 09:02 37.952512 -107.902563 104 9078ft 25kts
15-Sep-19 09:03 37.952995 -107.901246 18 9078ft 1kts
15-Sep-19 09:04 37.954269 -107.902271 125 9078ft 4kts
15-Sep-19 09:05 37.954211 -107.902099 104 9078ft 0kts
15-Sep-19 09:06 37.954211 -107.902099 104 9078ft 0kts

Navigation Log

Ident Type
Flight plan parsing failed, navigation log unavailable